sensor_id;sensor_type;location;lat;lon;timestamp;temperature;humidity
13229;DHT22;6680;53.220;10.402;2023-11-22T00:01:23;0.90;99.90
13229;DHT22;6680;53.220;10.402;2023-11-22T00:08:46;0.80;99.90
13229;DHT22;6680;53.220;10.402;2023-11-22T00:11:16;0.80;99.90
13229;DHT22;6680;53.220;10.402;2023-11-22T00:13:43;0.70;99.90
13229;DHT22;6680;53.220;10.402;2023-11-22T00:18:39;0.70;99.90
13229;DHT22;6680;53.220;10.402;2023-11-22T00:21:06;0.70;99.90
13229;DHT22;6680;53.220;10.402;2023-11-22T00:28:30;0.60;99.90
13229;DHT22;6680;53.220;10.402;2023-11-22T00:31:00;0.60;99.90
13229;DHT22;6680;53.220;10.402;2023-11-22T00:33:27;2.60;99.90
13229;DHT22;6680;53.220;10.402;2023-11-22T00:35:55;1.10;99.90
13229;DHT22;6680;53.220;10.402;2023-11-22T00:38:23;0.50;99.90
13229;DHT22;6680;53.220;10.402;2023-11-22T00:40:51;0.50;99.90
13229;DHT22;6680;53.220;10.402;2023-11-22T00:45:45;0.50;99.90
13229;DHT22;6680;53.220;10.402;2023-11-22T00:48:11;0.40;99.90
13229;DHT22;6680;53.220;10.402;2023-11-22T00:53:07;0.40;99.90
13229;DHT22;6680;53.220;10.402;2023-11-22T00:55:34;0.20;99.90
13229;DHT22;6680;53.220;10.402;2023-11-22T00:58:01;0.80;99.90
13229;DHT22;6680;53.220;10.402;2023-11-22T01:00:30;0.40;99.90
13229;DHT22;6680;53.220;10.402;2023-11-22T01:02:56;0.50;99.90
13229;DHT22;6680;53.220;10.402;2023-11-22T01:05:23;0.20;99.90
13229;DHT22;6680;53.220;10.402;2023-11-22T01:07:50;0.20;99.90
13229;DHT22;6680;53.220;10.402;2023-11-22T01:10:18;0.20;99.90
13229;DHT22;6680;53.220;10.402;2023-11-22T01:12:45;0.20;99.90
13229;DHT22;6680;53.220;10.402;2023-11-22T01:15:12;0.70;99.90
13229;DHT22;6680;53.220;10.402;2023-11-22T01:17:39;1.90;99.90
13229;DHT22;6680;53.220;10.402;2023-11-22T01:20:07;2.00;99.90
13229;DHT22;6680;53.220;10.402;2023-11-22T01:22:36;0.20;99.90
13229;DHT22;6680;53.220;10.402;2023-11-22T01:25:05;0.10;99.90
13229;DHT22;6680;53.220;10.402;2023-11-22T01:27:33;0.20;99.90
13229;DHT22;6680;53.220;10.402;2023-11-22T01:30:01;0.10;99.90
13229;DHT22;6680;53.220;10.402;2023-11-22T01:34:56;0.10;99.90
13229;DHT22;6680;53.220;10.402;2023-11-22T01:37:24;0.00;99.90
13229;DHT22;6680;53.220;10.402;2023-11-22T01:39:51;0.00;99.90
13229;DHT22;6680;53.220;10.402;2023-11-22T01:42:19;-0.10;99.90
13229;DHT22;6680;53.220;10.402;2023-11-22T01:44:47;-0.10;99.90
13229;DHT22;6680;53.220;10.402;2023-11-22T01:52:08;-0.20;99.90
13229;DHT22;6680;53.220;10.402;2023-11-22T01:54:36;-0.20;99.90
13229;DHT22;6680;53.220;10.402;2023-11-22T01:57:04;0.00;99.90
13229;DHT22;6680;53.220;10.402;2023-11-22T01:59:34;-0.10;99.90
13229;DHT22;6680;53.220;10.402;2023-11-22T02:02:02;0.10;99.90
13229;DHT22;6680;53.220;10.402;2023-11-22T02:06:57;0.20;99.90
13229;DHT22;6680;53.220;10.402;2023-11-22T02:09:23;0.30;99.90
13229;DHT22;6680;53.220;10.402;2023-11-22T02:11:50;0.10;99.90
13229;DHT22;6680;53.220;10.402;2023-11-22T02:14:17;0.40;99.90
13229;DHT22;6680;53.220;10.402;2023-11-22T02:16:44;0.40;99.90
13229;DHT22;6680;53.220;10.402;2023-11-22T02:19:14;0.50;99.90
13229;DHT22;6680;53.220;10.402;2023-11-22T02:21:42;0.50;99.90
13229;DHT22;6680;53.220;10.402;2023-11-22T02:24:10;0.70;99.90
13229;DHT22;6680;53.220;10.402;2023-11-22T02:26:37;0.20;99.90
13229;DHT22;6680;53.220;10.402;2023-11-22T02:29:04;1.00;99.90
13229;DHT22;6680;53.220;10.402;2023-11-22T02:31:32;0.70;99.90
13229;DHT22;6680;53.220;10.402;2023-11-22T02:36:27;0.60;99.90
13229;DHT22;6680;53.220;10.402;2023-11-22T02:38:54;0.50;99.90
13229;DHT22;6680;53.220;10.402;2023-11-22T02:41:23;1.30;99.90
13229;DHT22;6680;53.220;10.402;2023-11-22T02:43:50;0.40;99.90
13229;DHT22;6680;53.220;10.402;2023-11-22T02:46:17;1.20;99.90
13229;DHT22;6680;53.220;10.402;2023-11-22T02:48:44;0.20;99.90
13229;DHT22;6680;53.220;10.402;2023-11-22T02:51:11;0.20;99.90
13229;DHT22;6680;53.220;10.402;2023-11-22T02:58:37;0.10;99.90
13229;DHT22;6680;53.220;10.402;2023-11-22T03:03:33;0.10;99.90
13229;DHT22;6680;53.220;10.402;2023-11-22T03:05:59;-0.10;99.90
13229;DHT22;6680;53.220;10.402;2023-11-22T03:08:26;0.00;99.90
13229;DHT22;6680;53.220;10.402;2023-11-22T03:10:53;-0.10;99.90
13229;DHT22;6680;53.220;10.402;2023-11-22T03:13:20;-0.10;99.90
13229;DHT22;6680;53.220;10.402;2023-11-22T03:15:48;-0.10;99.90
13229;DHT22;6680;53.220;10.402;2023-11-22T03:20:43;-0.10;99.90
13229;DHT22;6680;53.220;10.402;2023-11-22T03:23:10;-0.20;99.90
13229;DHT22;6680;53.220;10.402;2023-11-22T03:25:37;0.30;99.90
13229;DHT22;6680;53.220;10.402;2023-11-22T03:28:04;-0.20;99.90
13229;DHT22;6680;53.220;10.402;2023-11-22T03:30:31;-0.40;99.90
13229;DHT22;6680;53.220;10.402;2023-11-22T03:32:59;2.00;99.90
13229;DHT22;6680;53.220;10.402;2023-11-22T03:35:26;-0.30;99.90
13229;DHT22;6680;53.220;10.402;2023-11-22T03:37:54;-0.30;99.90
13229;DHT22;6680;53.220;10.402;2023-11-22T03:40:21;-0.30;99.90
13229;DHT22;6680;53.220;10.402;2023-11-22T03:42:48;-0.30;99.90
13229;DHT22;6680;53.220;10.402;2023-11-22T03:45:15;-0.30;99.90
13229;DHT22;6680;53.220;10.402;2023-11-22T03:50:10;-0.20;99.90
13229;DHT22;6680;53.220;10.402;2023-11-22T03:55:05;-0.10;99.90
13229;DHT22;6680;53.220;10.402;2023-11-22T03:57:32;0.00;99.90
13229;DHT22;6680;53.220;10.402;2023-11-22T03:59:59;0.30;99.90
13229;DHT22;6680;53.220;10.402;2023-11-22T04:02:25;0.20;99.90
13229;DHT22;6680;53.220;10.402;2023-11-22T04:04:53;0.20;99.90
13229;DHT22;6680;53.220;10.402;2023-11-22T04:07:21;0.30;99.90
13229;DHT22;6680;53.220;10.402;2023-11-22T04:09:49;0.20;99.90
13229;DHT22;6680;53.220;10.402;2023-11-22T04:12:15;0.10;99.90
13229;DHT22;6680;53.220;10.402;2023-11-22T04:14:42;0.10;99.90
13229;DHT22;6680;53.220;10.402;2023-11-22T04:17:09;-0.10;99.90
13229;DHT22;6680;53.220;10.402;2023-11-22T04:19:36;-0.10;99.90
13229;DHT22;6680;53.220;10.402;2023-11-22T04:22:03;-0.20;99.90
13229;DHT22;6680;53.220;10.402;2023-11-22T04:24:31;-0.20;99.90
13229;DHT22;6680;53.220;10.402;2023-11-22T04:26:58;-0.40;99.90
13229;DHT22;6680;53.220;10.402;2023-11-22T04:31:52;-0.40;99.90
13229;DHT22;6680;53.220;10.402;2023-11-22T04:34:19;0.00;99.90
13229;DHT22;6680;53.220;10.402;2023-11-22T04:36:47;-0.30;99.90
13229;DHT22;6680;53.220;10.402;2023-11-22T04:39:16;-0.40;99.90
13229;DHT22;6680;53.220;10.402;2023-11-22T04:41:46;-0.40;99.90
13229;DHT22;6680;53.220;10.402;2023-11-22T04:44:14;-0.50;99.90
13229;DHT22;6680;53.220;10.402;2023-11-22T04:46:41;-0.70;99.90
13229;DHT22;6680;53.220;10.402;2023-11-22T04:49:10;-0.50;99.90
13229;DHT22;6680;53.220;10.402;2023-11-22T04:51:41;1.10;99.90
13229;DHT22;6680;53.220;10.402;2023-11-22T04:54:11;-0.50;99.90
13229;DHT22;6680;53.220;10.402;2023-11-22T04:56:38;-0.60;99.90
13229;DHT22;6680;53.220;10.402;2023-11-22T04:59:09;-0.60;99.90
13229;DHT22;6680;53.220;10.402;2023-11-22T05:01:36;-0.60;99.90
13229;DHT22;6680;53.220;10.402;2023-11-22T05:04:03;-0.70;99.90
13229;DHT22;6680;53.220;10.402;2023-11-22T05:06:30;-0.70;99.90
13229;DHT22;6680;53.220;10.402;2023-11-22T05:08:57;-0.80;99.90
13229;DHT22;6680;53.220;10.402;2023-11-22T05:11:24;-0.80;99.90
13229;DHT22;6680;53.220;10.402;2023-11-22T05:13:51;-0.80;99.90
13229;DHT22;6680;53.220;10.402;2023-11-22T05:16:19;-0.80;99.90
13229;DHT22;6680;53.220;10.402;2023-11-22T05:23:40;-0.90;99.90
13229;DHT22;6680;53.220;10.402;2023-11-22T05:28:35;-1.00;99.90
13229;DHT22;6680;53.220;10.402;2023-11-22T05:31:01;-0.70;99.90
13229;DHT22;6680;53.220;10.402;2023-11-22T05:33:30;-1.00;99.90
13229;DHT22;6680;53.220;10.402;2023-11-22T05:35:57;0.90;99.90
13229;DHT22;6680;53.220;10.402;2023-11-22T05:38:24;-1.10;99.90
13229;DHT22;6680;53.220;10.402;2023-11-22T05:43:19;-1.10;99.90
13229;DHT22;6680;53.220;10.402;2023-11-22T05:45:51;-1.20;99.90
13229;DHT22;6680;53.220;10.402;2023-11-22T05:50:47;-1.20;99.90
13229;DHT22;6680;53.220;10.402;2023-11-22T05:53:14;-1.30;99.90
13229;DHT22;6680;53.220;10.402;2023-11-22T05:55:45;-0.80;99.90
13229;DHT22;6680;53.220;10.402;2023-11-22T05:58:12;-1.20;99.90
13229;DHT22;6680;53.220;10.402;2023-11-22T06:03:09;-1.20;99.90
13229;DHT22;6680;53.220;10.402;2023-11-22T06:08:05;-1.20;99.90
13229;DHT22;6680;53.220;10.402;2023-11-22T06:10:31;-1.20;99.90
13229;DHT22;6680;53.220;10.402;2023-11-22T06:12:59;-1.10;99.90
13229;DHT22;6680;53.220;10.402;2023-11-22T06:20:20;-1.20;99.90
13229;DHT22;6680;53.220;10.402;2023-11-22T06:22:49;-1.20;99.90
13229;DHT22;6680;53.220;10.402;2023-11-22T06:25:17;-1.20;99.90
13229;DHT22;6680;53.220;10.402;2023-11-22T06:27:44;-1.20;99.90
13229;DHT22;6680;53.220;10.402;2023-11-22T06:30:11;-1.20;99.90
13229;DHT22;6680;53.220;10.402;2023-11-22T06:35:09;-1.20;99.90
13229;DHT22;6680;53.220;10.402;2023-11-22T06:37:37;-1.10;99.90
13229;DHT22;6680;53.220;10.402;2023-11-22T06:40:04;-1.10;99.90
13229;DHT22;6680;53.220;10.402;2023-11-22T06:42:34;-1.10;99.90
13229;DHT22;6680;53.220;10.402;2023-11-22T06:45:01;-1.10;99.90
13229;DHT22;6680;53.220;10.402;2023-11-22T06:47:28;-1.10;99.90
13229;DHT22;6680;53.220;10.402;2023-11-22T06:49:55;-1.50;99.90
13229;DHT22;6680;53.220;10.402;2023-11-22T06:52:21;-1.10;99.90
13229;DHT22;6680;53.220;10.402;2023-11-22T06:54:48;-1.30;99.90
13229;DHT22;6680;53.220;10.402;2023-11-22T06:57:15;-1.10;99.90
13229;DHT22;6680;53.220;10.402;2023-11-22T06:59:43;-1.10;99.90
13229;DHT22;6680;53.220;10.402;2023-11-22T07:04:37;-1.00;99.90
13229;DHT22;6680;53.220;10.402;2023-11-22T07:07:05;-1.00;99.90
13229;DHT22;6680;53.220;10.402;2023-11-22T07:14:31;-1.00;99.90
13229;DHT22;6680;53.220;10.402;2023-11-22T07:17:00;-1.00;99.90
13229;DHT22;6680;53.220;10.402;2023-11-22T07:19:27;-1.20;99.90
13229;DHT22;6680;53.220;10.402;2023-11-22T07:26:49;-0.90;99.90
13229;DHT22;6680;53.220;10.402;2023-11-22T07:31:43;-0.80;99.90
13229;DHT22;6680;53.220;10.402;2023-11-22T07:34:11;-0.70;99.90
13229;DHT22;6680;53.220;10.402;2023-11-22T07:39:06;-0.70;99.90
13229;DHT22;6680;53.220;10.402;2023-11-22T07:46:27;-0.50;99.90
13229;DHT22;6680;53.220;10.402;2023-11-22T07:51:23;-0.30;99.90
13229;DHT22;6680;53.220;10.402;2023-11-22T08:03:39;-0.20;99.90
13229;DHT22;6680;53.220;10.402;2023-11-22T08:08:40;-0.10;99.90
13229;DHT22;6680;53.220;10.402;2023-11-22T08:11:06;-0.10;99.90
13229;DHT22;6680;53.220;10.402;2023-11-22T08:13:40;-0.10;99.90
13229;DHT22;6680;53.220;10.402;2023-11-22T08:16:08;0.00;99.90
13229;DHT22;6680;53.220;10.402;2023-11-22T08:18:35;0.10;99.90
13229;DHT22;6680;53.220;10.402;2023-11-22T08:21:02;0.00;99.90
13229;DHT22;6680;53.220;10.402;2023-11-22T08:23:29;0.10;99.90
13229;DHT22;6680;53.220;10.402;2023-11-22T08:25:58;0.20;99.90
13229;DHT22;6680;53.220;10.402;2023-11-22T08:28:26;0.20;99.90
13229;DHT22;6680;53.220;10.402;2023-11-22T08:35:49;0.50;99.90
13229;DHT22;6680;53.220;10.402;2023-11-22T08:38:23;0.50;99.90
13229;DHT22;6680;53.220;10.402;2023-11-22T08:40:50;0.50;99.90
13229;DHT22;6680;53.220;10.402;2023-11-22T08:43:18;0.60;99.90
13229;DHT22;6680;53.220;10.402;2023-11-22T08:45:48;0.70;99.90
13229;DHT22;6680;53.220;10.402;2023-11-22T08:50:42;0.70;99.90
13229;DHT22;6680;53.220;10.402;2023-11-22T08:53:10;0.80;99.90
13229;DHT22;6680;53.220;10.402;2023-11-22T08:55:38;0.90;99.90
13229;DHT22;6680;53.220;10.402;2023-11-22T09:00:35;1.00;99.90
13229;DHT22;6680;53.220;10.402;2023-11-22T09:05:29;1.10;99.90
13229;DHT22;6680;53.220;10.402;2023-11-22T09:10:24;1.20;99.90
13229;DHT22;6680;53.220;10.402;2023-11-22T09:12:52;1.30;99.90
13229;DHT22;6680;53.220;10.402;2023-11-22T09:17:53;1.40;99.90
13229;DHT22;6680;53.220;10.402;2023-11-22T09:20:20;1.50;99.90
13229;DHT22;6680;53.220;10.402;2023-11-22T09:22:49;1.60;99.90
13229;DHT22;6680;53.220;10.402;2023-11-22T09:27:45;1.70;99.90
13229;DHT22;6680;53.220;10.402;2023-11-22T09:30:14;2.20;99.90
13229;DHT22;6680;53.220;10.402;2023-11-22T09:32:59;1.80;99.90
13229;DHT22;6680;53.220;10.402;2023-11-22T09:37:54;1.90;99.90
13229;DHT22;6680;53.220;10.402;2023-11-22T09:40:22;1.90;99.90
13229;DHT22;6680;53.220;10.402;2023-11-22T09:45:19;2.00;99.90
13229;DHT22;6680;53.220;10.402;2023-11-22T09:50:23;2.10;99.90
13229;DHT22;6680;53.220;10.402;2023-11-22T09:52:56;2.20;99.90
13229;DHT22;6680;53.220;10.402;2023-11-22T09:55:28;2.30;99.90
13229;DHT22;6680;53.220;10.402;2023-11-22T09:57:56;2.30;99.90
13229;DHT22;6680;53.220;10.402;2023-11-22T10:00:26;2.40;99.90
13229;DHT22;6680;53.220;10.402;2023-11-22T10:05:24;2.40;99.90
13229;DHT22;6680;53.220;10.402;2023-11-22T10:07:54;2.50;99.90
13229;DHT22;6680;53.220;10.402;2023-11-22T10:12:53;2.60;99.90
13229;DHT22;6680;53.220;10.402;2023-11-22T10:15:22;2.60;99.90
13229;DHT22;6680;53.220;10.402;2023-11-22T10:17:54;2.60;99.90
13229;DHT22;6680;53.220;10.402;2023-11-22T10:20:36;2.70;99.90
13229;DHT22;6680;53.220;10.402;2023-11-22T10:23:03;2.80;99.90
13229;DHT22;6680;53.220;10.402;2023-11-22T10:25:30;2.80;99.90
13229;DHT22;6680;53.220;10.402;2023-11-22T10:27:58;2.80;99.90
13229;DHT22;6680;53.220;10.402;2023-11-22T10:30:24;2.90;99.90
13229;DHT22;6680;53.220;10.402;2023-11-22T10:32:54;2.90;99.90
13229;DHT22;6680;53.220;10.402;2023-11-22T10:35:21;2.90;99.90
13229;DHT22;6680;53.220;10.402;2023-11-22T10:37:49;2.90;99.90
13229;DHT22;6680;53.220;10.402;2023-11-22T10:40:16;3.00;99.90
13229;DHT22;6680;53.220;10.402;2023-11-22T10:42:43;3.00;99.90
13229;DHT22;6680;53.220;10.402;2023-11-22T10:45:10;3.00;99.90
13229;DHT22;6680;53.220;10.402;2023-11-22T10:47:38;3.10;99.90
13229;DHT22;6680;53.220;10.402;2023-11-22T10:50:08;3.20;99.90
13229;DHT22;6680;53.220;10.402;2023-11-22T10:52:36;3.20;99.90
13229;DHT22;6680;53.220;10.402;2023-11-22T10:55:05;3.20;99.90
13229;DHT22;6680;53.220;10.402;2023-11-22T10:57:35;3.20;99.90
13229;DHT22;6680;53.220;10.402;2023-11-22T11:00:04;3.30;99.90
13229;DHT22;6680;53.220;10.402;2023-11-22T11:02:38;3.40;99.90
13229;DHT22;6680;53.220;10.402;2023-11-22T11:05:12;3.40;99.90
13229;DHT22;6680;53.220;10.402;2023-11-22T11:07:48;3.40;99.90
13229;DHT22;6680;53.220;10.402;2023-11-22T11:10:19;3.50;99.90
13229;DHT22;6680;53.220;10.402;2023-11-22T11:12:46;3.60;99.90
13229;DHT22;6680;53.220;10.402;2023-11-22T11:15:14;3.50;99.90
13229;DHT22;6680;53.220;10.402;2023-11-22T11:17:43;3.60;99.90
13229;DHT22;6680;53.220;10.402;2023-11-22T11:20:13;3.60;99.90
13229;DHT22;6680;53.220;10.402;2023-11-22T11:22:43;3.80;99.90
13229;DHT22;6680;53.220;10.402;2023-11-22T11:25:14;3.70;99.90
13229;DHT22;6680;53.220;10.402;2023-11-22T11:27:55;3.70;99.90
13229;DHT22;6680;53.220;10.402;2023-11-22T11:30:44;3.70;99.90
13229;DHT22;6680;53.220;10.402;2023-11-22T11:33:12;3.80;99.90
13229;DHT22;6680;53.220;10.402;2023-11-22T11:35:42;3.80;99.90
13229;DHT22;6680;53.220;10.402;2023-11-22T11:38:12;3.80;99.90
13229;DHT22;6680;53.220;10.402;2023-11-22T11:40:40;3.80;99.90
13229;DHT22;6680;53.220;10.402;2023-11-22T11:43:10;3.90;99.90
13229;DHT22;6680;53.220;10.402;2023-11-22T11:45:37;3.80;99.90
13229;DHT22;6680;53.220;10.402;2023-11-22T11:48:05;3.90;99.90
13229;DHT22;6680;53.220;10.402;2023-11-22T11:50:33;3.80;99.90
13229;DHT22;6680;53.220;10.402;2023-11-22T11:52:59;3.90;99.90
13229;DHT22;6680;53.220;10.402;2023-11-22T11:55:26;3.90;99.90
13229;DHT22;6680;53.220;10.402;2023-11-22T11:57:54;3.90;99.90
13229;DHT22;6680;53.220;10.402;2023-11-22T12:00:22;3.90;99.90
13229;DHT22;6680;53.220;10.402;2023-11-22T12:02:50;3.90;99.90
13229;DHT22;6680;53.220;10.402;2023-11-22T12:05:19;3.80;99.90
13229;DHT22;6680;53.220;10.402;2023-11-22T12:07:46;3.80;99.90
13229;DHT22;6680;53.220;10.402;2023-11-22T12:10:13;3.80;99.90
13229;DHT22;6680;53.220;10.402;2023-11-22T12:15:08;3.90;99.90
13229;DHT22;6680;53.220;10.402;2023-11-22T12:17:37;3.80;99.90
13229;DHT22;6680;53.220;10.402;2023-11-22T12:20:11;3.80;99.90
13229;DHT22;6680;53.220;10.402;2023-11-22T12:22:39;3.90;99.90
13229;DHT22;6680;53.220;10.402;2023-11-22T12:25:08;3.80;99.90
13229;DHT22;6680;53.220;10.402;2023-11-22T12:27:38;3.80;99.90
13229;DHT22;6680;53.220;10.402;2023-11-22T12:30:07;3.90;99.90
13229;DHT22;6680;53.220;10.402;2023-11-22T12:32:34;3.90;99.90
13229;DHT22;6680;53.220;10.402;2023-11-22T12:35:05;3.90;99.90
13229;DHT22;6680;53.220;10.402;2023-11-22T12:37:33;3.90;99.90
13229;DHT22;6680;53.220;10.402;2023-11-22T12:40:09;3.90;99.90
13229;DHT22;6680;53.220;10.402;2023-11-22T12:42:47;3.90;99.90
13229;DHT22;6680;53.220;10.402;2023-11-22T12:45:21;3.90;99.90
13229;DHT22;6680;53.220;10.402;2023-11-22T12:47:49;3.90;99.90
13229;DHT22;6680;53.220;10.402;2023-11-22T12:50:37;3.90;99.90
13229;DHT22;6680;53.220;10.402;2023-11-22T12:53:08;3.90;99.90
13229;DHT22;6680;53.220;10.402;2023-11-22T12:55:37;4.00;99.90
13229;DHT22;6680;53.220;10.402;2023-11-22T12:58:04;3.90;99.90
13229;DHT22;6680;53.220;10.402;2023-11-22T13:00:31;4.00;99.90
13229;DHT22;6680;53.220;10.402;2023-11-22T13:02:58;4.00;99.90
13229;DHT22;6680;53.220;10.402;2023-11-22T13:05:25;4.00;99.90
13229;DHT22;6680;53.220;10.402;2023-11-22T13:07:53;3.80;99.90
13229;DHT22;6680;53.220;10.402;2023-11-22T13:10:20;3.80;99.90
13229;DHT22;6680;53.220;10.402;2023-11-22T13:12:51;3.80;99.90
13229;DHT22;6680;53.220;10.402;2023-11-22T13:15:19;3.80;99.90
13229;DHT22;6680;53.220;10.402;2023-11-22T13:17:49;3.80;99.90
13229;DHT22;6680;53.220;10.402;2023-11-22T13:20:16;3.70;99.90
13229;DHT22;6680;53.220;10.402;2023-11-22T13:22:45;3.60;99.90
13229;DHT22;6680;53.220;10.402;2023-11-22T13:25:14;3.60;99.90
13229;DHT22;6680;53.220;10.402;2023-11-22T13:27:42;3.60;99.90
13229;DHT22;6680;53.220;10.402;2023-11-22T13:30:09;3.60;99.90
13229;DHT22;6680;53.220;10.402;2023-11-22T13:32:37;3.50;99.90
13229;DHT22;6680;53.220;10.402;2023-11-22T13:35:07;3.80;99.90
13229;DHT22;6680;53.220;10.402;2023-11-22T13:37:40;3.60;99.90
13229;DHT22;6680;53.220;10.402;2023-11-22T13:40:09;3.60;99.90
13229;DHT22;6680;53.220;10.402;2023-11-22T13:42:42;3.60;99.90
13229;DHT22;6680;53.220;10.402;2023-11-22T13:45:10;3.60;99.90
13229;DHT22;6680;53.220;10.402;2023-11-22T13:47:41;3.70;99.90
13229;DHT22;6680;53.220;10.402;2023-11-22T13:50:08;3.60;99.90
13229;DHT22;6680;53.220;10.402;2023-11-22T13:52:35;3.70;99.90
13229;DHT22;6680;53.220;10.402;2023-11-22T13:55:02;3.70;99.90
13229;DHT22;6680;53.220;10.402;2023-11-22T13:57:33;3.60;99.90
13229;DHT22;6680;53.220;10.402;2023-11-22T14:00:02;3.60;99.90
13229;DHT22;6680;53.220;10.402;2023-11-22T14:02:32;3.50;99.90
13229;DHT22;6680;53.220;10.402;2023-11-22T14:04:59;3.60;99.90
13229;DHT22;6680;53.220;10.402;2023-11-22T14:07:27;3.50;99.90
13229;DHT22;6680;53.220;10.402;2023-11-22T14:09:53;3.60;99.90
13229;DHT22;6680;53.220;10.402;2023-11-22T14:12:20;3.50;99.90
13229;DHT22;6680;53.220;10.402;2023-11-22T14:14:49;3.60;99.90
13229;DHT22;6680;53.220;10.402;2023-11-22T14:17:18;3.50;99.90
13229;DHT22;6680;53.220;10.402;2023-11-22T14:19:46;3.50;99.90
13229;DHT22;6680;53.220;10.402;2023-11-22T14:22:13;3.50;99.90
13229;DHT22;6680;53.220;10.402;2023-11-22T14:24:40;3.20;99.90
13229;DHT22;6680;53.220;10.402;2023-11-22T14:27:07;3.40;99.90
13229;DHT22;6680;53.220;10.402;2023-11-22T14:29:35;3.30;99.90
13229;DHT22;6680;53.220;10.402;2023-11-22T14:32:03;3.30;99.90
13229;DHT22;6680;53.220;10.402;2023-11-22T14:34:31;3.20;99.90
13229;DHT22;6680;53.220;10.402;2023-11-22T14:36:58;3.20;99.90
13229;DHT22;6680;53.220;10.402;2023-11-22T14:39:24;3.20;99.90
13229;DHT22;6680;53.220;10.402;2023-11-22T14:41:53;3.20;99.90
13229;DHT22;6680;53.220;10.402;2023-11-22T14:44:21;3.10;99.90
13229;DHT22;6680;53.220;10.402;2023-11-22T14:46:48;3.10;99.90
13229;DHT22;6680;53.220;10.402;2023-11-22T14:49:15;3.10;99.90
13229;DHT22;6680;53.220;10.402;2023-11-22T14:51:43;3.00;99.90
13229;DHT22;6680;53.220;10.402;2023-11-22T14:54:10;2.90;99.90
13229;DHT22;6680;53.220;10.402;2023-11-22T14:56:38;3.10;99.90
13229;DHT22;6680;53.220;10.402;2023-11-22T14:59:06;3.00;99.90
13229;DHT22;6680;53.220;10.402;2023-11-22T15:01:33;3.00;99.90
13229;DHT22;6680;53.220;10.402;2023-11-22T15:03:59;2.90;99.90
13229;DHT22;6680;53.220;10.402;2023-11-22T15:06:26;2.90;99.90
13229;DHT22;6680;53.220;10.402;2023-11-22T15:08:54;2.80;99.90
13229;DHT22;6680;53.220;10.402;2023-11-22T15:11:24;2.90;99.90
13229;DHT22;6680;53.220;10.402;2023-11-22T15:13:51;2.90;99.90
13229;DHT22;6680;53.220;10.402;2023-11-22T15:16:18;2.70;99.90
13229;DHT22;6680;53.220;10.402;2023-11-22T15:18:45;2.80;99.90
13229;DHT22;6680;53.220;10.402;2023-11-22T15:21:12;2.80;99.90
13229;DHT22;6680;53.220;10.402;2023-11-22T15:23:39;2.80;99.90
13229;DHT22;6680;53.220;10.402;2023-11-22T15:26:07;2.80;99.90
13229;DHT22;6680;53.220;10.402;2023-11-22T15:28:34;2.80;99.90
13229;DHT22;6680;53.220;10.402;2023-11-22T15:31:01;2.60;99.90
13229;DHT22;6680;53.220;10.402;2023-11-22T15:33:28;2.70;99.90
13229;DHT22;6680;53.220;10.402;2023-11-22T15:35:54;2.70;99.90
13229;DHT22;6680;53.220;10.402;2023-11-22T15:38:21;2.80;99.90
13229;DHT22;6680;53.220;10.402;2023-11-22T15:40:48;2.80;99.90
13229;DHT22;6680;53.220;10.402;2023-11-22T15:43:16;2.70;99.90
13229;DHT22;6680;53.220;10.402;2023-11-22T15:45:44;2.70;99.90
13229;DHT22;6680;53.220;10.402;2023-11-22T15:48:10;2.60;99.90
13229;DHT22;6680;53.220;10.402;2023-11-22T15:50:40;2.60;99.90
13229;DHT22;6680;53.220;10.402;2023-11-22T15:53:07;2.60;99.90
13229;DHT22;6680;53.220;10.402;2023-11-22T15:55:39;2.60;99.90
13229;DHT22;6680;53.220;10.402;2023-11-22T15:58:06;2.80;99.90
13229;DHT22;6680;53.220;10.402;2023-11-22T16:00:34;2.70;99.90
13229;DHT22;6680;53.220;10.402;2023-11-22T16:03:01;2.70;99.90
13229;DHT22;6680;53.220;10.402;2023-11-22T16:05:31;3.40;99.90
13229;DHT22;6680;53.220;10.402;2023-11-22T16:07:57;2.90;99.90
13229;DHT22;6680;53.220;10.402;2023-11-22T16:12:51;2.50;99.90
13229;DHT22;6680;53.220;10.402;2023-11-22T16:17:47;2.50;99.90
13229;DHT22;6680;53.220;10.402;2023-11-22T16:20:14;2.60;99.90
13229;DHT22;6680;53.220;10.402;2023-11-22T16:22:42;2.50;99.90
13229;DHT22;6680;53.220;10.402;2023-11-22T16:25:11;2.50;99.90
13229;DHT22;6680;53.220;10.402;2023-11-22T16:27:38;2.50;99.90
13229;DHT22;6680;53.220;10.402;2023-11-22T16:30:06;2.50;99.90
13229;DHT22;6680;53.220;10.402;2023-11-22T16:32:34;2.50;99.90
13229;DHT22;6680;53.220;10.402;2023-11-22T16:35:04;2.50;99.90
13229;DHT22;6680;53.220;10.402;2023-11-22T16:37:31;2.50;99.90
13229;DHT22;6680;53.220;10.402;2023-11-22T16:39:58;2.50;99.90
13229;DHT22;6680;53.220;10.402;2023-11-22T16:42:30;2.50;99.90
13229;DHT22;6680;53.220;10.402;2023-11-22T16:44:58;2.70;99.90
13229;DHT22;6680;53.220;10.402;2023-11-22T16:47:25;2.50;99.90
13229;DHT22;6680;53.220;10.402;2023-11-22T16:49:52;3.10;99.90
13229;DHT22;6680;53.220;10.402;2023-11-22T16:52:20;3.80;99.90
13229;DHT22;6680;53.220;10.402;2023-11-22T16:54:51;3.60;99.90
13229;DHT22;6680;53.220;10.402;2023-11-22T17:02:13;2.10;99.90
13229;DHT22;6680;53.220;10.402;2023-11-22T17:04:43;2.20;99.90
13229;DHT22;6680;53.220;10.402;2023-11-22T17:07:10;2.10;99.90
13229;DHT22;6680;53.220;10.402;2023-11-22T17:09:40;2.80;99.90
13229;DHT22;6680;53.220;10.402;2023-11-22T17:12:07;2.10;99.90
13229;DHT22;6680;53.220;10.402;2023-11-22T17:14:35;2.20;99.90
13229;DHT22;6680;53.220;10.402;2023-11-22T17:17:03;2.10;99.90
13229;DHT22;6680;53.220;10.402;2023-11-22T17:19:30;4.00;99.90
13229;DHT22;6680;53.220;10.402;2023-11-22T17:21:57;2.00;99.90
13229;DHT22;6680;53.220;10.402;2023-11-22T17:26:52;2.10;99.90
13229;DHT22;6680;53.220;10.402;2023-11-22T17:29:20;2.60;99.90
13229;DHT22;6680;53.220;10.402;2023-11-22T17:44:08;2.30;99.90
13229;DHT22;6680;53.220;10.402;2023-11-22T17:49:07;2.20;99.90
13229;DHT22;6680;53.220;10.402;2023-11-22T17:51:37;3.20;99.90
13229;DHT22;6680;53.220;10.402;2023-11-22T17:54:05;2.30;99.90
13229;DHT22;6680;53.220;10.402;2023-11-22T17:56:33;2.30;99.90
13229;DHT22;6680;53.220;10.402;2023-11-22T17:59:00;2.50;99.90
13229;DHT22;6680;53.220;10.402;2023-11-22T18:01:29;2.30;99.90
13229;DHT22;6680;53.220;10.402;2023-11-22T18:03:57;2.30;99.90
13229;DHT22;6680;53.220;10.402;2023-11-22T18:06:24;2.40;99.90
13229;DHT22;6680;53.220;10.402;2023-11-22T18:08:51;2.30;99.90
13229;DHT22;6680;53.220;10.402;2023-11-22T18:11:23;2.40;99.90
13229;DHT22;6680;53.220;10.402;2023-11-22T18:13:50;2.30;99.90
13229;DHT22;6680;53.220;10.402;2023-11-22T18:16:17;2.40;99.90
13229;DHT22;6680;53.220;10.402;2023-11-22T18:18:46;2.50;99.90
13229;DHT22;6680;53.220;10.402;2023-11-22T18:21:13;2.40;99.90
13229;DHT22;6680;53.220;10.402;2023-11-22T18:23:40;2.40;99.90
13229;DHT22;6680;53.220;10.402;2023-11-22T18:26:07;2.50;99.90
13229;DHT22;6680;53.220;10.402;2023-11-22T18:28:34;2.50;99.90
13229;DHT22;6680;53.220;10.402;2023-11-22T18:31:01;2.50;99.90
13229;DHT22;6680;53.220;10.402;2023-11-22T18:33:28;2.50;99.90
13229;DHT22;6680;53.220;10.402;2023-11-22T18:35:56;3.30;99.90
13229;DHT22;6680;53.220;10.402;2023-11-22T18:38:24;2.50;99.90